Time;durP1;ratioP1;P1;durP2;ratioP2;P2;SDS_P1;SDS_P2;PMS_P1;PMS_P2;Temp;Humidity;BMP_temperature;BMP_pressure;BME280_temperature;BME280_humidity;BME280_pressure;Samples;Min_cycle;Max_cycle;Signal;HPM_P1;HPM_P2
2022/09/06 00:00:15;;;;;;;2.20;0.70;;;16.30;95.70;;;;;;4969428;28;20031;-48
2022/09/06 00:02:42;;;;;;;2.72;1.00;;;16.30;95.90;;;;;;4960831;28;20024;-49
2022/09/06 00:05:09;;;;;;;0.73;0.70;;;16.20;95.80;;;;;;4969576;28;20109;-47
2022/09/06 00:07:35;;;;;;;0.75;0.65;;;16.20;95.90;;;;;;4961297;28;20432;-46
2022/09/06 00:10:01;;;;;;;1.60;0.90;;;16.20;96.00;;;;;;4964198;28;20523;-46
2022/09/06 00:12:27;;;;;;;1.85;0.80;;;16.20;96.00;;;;;;4966615;28;20031;-46
2022/09/06 00:14:53;;;;;;;1.13;0.70;;;16.20;96.00;;;;;;4959983;28;20373;-46
2022/09/06 00:17:18;;;;;;;0.75;0.75;;;16.10;96.10;;;;;;4945005;28;20526;-47
2022/09/06 00:19:44;;;;;;;1.33;0.90;;;16.10;96.10;;;;;;4965218;28;20387;-49
2022/09/06 00:22:09;;;;;;;1.13;0.60;;;16.10;96.10;;;;;;4979528;23;20502;-57
2022/09/06 00:24:36;;;;;;;1.13;0.88;;;16.10;96.20;;;;;;4988973;28;20203;-54
2022/09/06 00:27:02;;;;;;;2.17;0.80;;;16.10;96.20;;;;;;4992370;28;20027;-52
2022/09/06 00:29:28;;;;;;;1.75;1.10;;;16.00;96.20;;;;;;4989010;28;20110;-56
2022/09/06 00:31:53;;;;;;;1.35;0.73;;;16.00;96.30;;;;;;4990295;28;20506;-53
2022/09/06 00:34:19;;;;;;;1.77;0.70;;;16.00;96.20;;;;;;4970259;28;20027;-56
2022/09/06 00:36:45;;;;;;;1.10;0.80;;;16.00;96.30;;;;;;4976461;28;20014;-53
2022/09/06 00:39:10;;;;;;;3.30;0.85;;;16.00;96.30;;;;;;4969257;28;20466;-56
2022/09/06 00:41:36;;;;;;;1.10;0.77;;;16.00;96.30;;;;;;4973138;28;20102;-56
2022/09/06 00:44:02;;;;;;;1.00;0.77;;;16.00;96.30;;;;;;4981386;28;20093;-57
2022/09/06 00:46:30;;;;;;;1.30;0.85;;;15.90;96.30;;;;;;4972245;28;20095;-54
2022/09/06 00:49:01;;;;;;;0.80;0.70;;;16.00;96.40;;;;;;4980711;28;20030;-56
2022/09/06 00:51:29;;;;;;;1.02;0.82;;;15.90;96.40;;;;;;4968072;28;20419;-59
2022/09/06 00:53:55;;;;;;;2.60;1.17;;;15.90;96.30;;;;;;4973118;28;20502;-58
2022/09/06 00:56:22;;;;;;;0.60;0.60;;;15.90;96.30;;;;;;4980316;28;20467;-60
2022/09/06 00:58:48;;;;;;;1.60;0.80;;;15.90;96.50;;;;;;4974405;28;20085;-55
2022/09/06 01:01:14;;;;;;;1.67;0.80;;;15.90;96.40;;;;;;4967049;28;20510;-59
2022/09/06 01:03:40;;;;;;;1.20;0.82;;;15.90;96.40;;;;;;4970275;28;20031;-54
2022/09/06 01:06:23;;;;;;;1.05;0.98;;;15.90;96.50;;;;;;4977359;28;20026;-56
2022/09/06 01:08:58;;;;;;;0.70;0.70;;;15.80;96.50;;;;;;4970903;28;20489;-57
2022/09/06 01:11:29;;;;;;;2.20;0.93;;;15.80;96.50;;;;;;4974929;28;20486;-57
2022/09/06 01:14:25;;;;;;;1.55;1.27;;;15.80;96.50;;;;;;4981857;28;20042;-57
2022/09/06 01:17:09;;;;;;;1.63;0.90;;;15.80;96.50;;;;;;4973298;28;20082;-57
2022/09/06 01:20:08;;;;;;;2.20;0.90;;;15.80;96.50;;;;;;4968543;28;20025;-54
2022/09/06 01:22:52;;;;;;;8.73;1.10;;;15.80;96.40;;;;;;4976251;28;20066;-55
2022/09/06 01:25:26;;;;;;;1.88;1.00;;;15.80;96.30;;;;;;4973323;28;20034;-56
2022/09/06 01:28:13;;;;;;;2.42;0.85;;;15.80;96.40;;;;;;4974653;28;20058;-57
2022/09/06 01:30:41;;;;;;;;;;;15.80;96.40;;;;;;4977915;28;20105;-54
2022/09/06 01:33:06;;;;;;;1.50;1.40;;;15.80;96.30;;;;;;4970003;28;19913;-57
2022/09/06 01:35:56;;;;;;;1.92;0.95;;;15.80;96.20;;;;;;4975734;28;20104;-55
2022/09/06 01:38:22;;;;;;;1.02;0.93;;;15.80;96.20;;;;;;4969553;28;20119;-55
2022/09/06 01:40:47;;;;;;;0.93;0.82;;;15.80;96.20;;;;;;4974403;28;20408;-53
2022/09/06 01:43:22;;;;;;;1.20;0.73;;;15.80;96.10;;;;;;4980107;28;20022;-55
2022/09/06 01:46:23;;;;;;;0.95;0.93;;;15.70;96.10;;;;;;4972704;28;20093;-56
2022/09/06 01:48:51;;;;;;;2.65;1.17;;;15.70;95.90;;;;;;4969757;28;20078;-57
2022/09/06 01:51:34;;;;;;;1.60;0.85;;;15.70;96.00;;;;;;4969532;28;20483;-55
2022/09/06 01:54:12;;;;;;;0.95;0.90;;;15.70;95.90;;;;;;4972764;28;20136;-56
2022/09/06 01:57:05;;;;;;;4.50;1.30;;;15.70;95.90;;;;;;4972664;28;20031;-54
2022/09/06 01:59:39;;;;;;;1.10;0.80;;;15.60;95.90;;;;;;4973502;28;20018;-58
2022/09/06 02:02:43;;;;;;;1.67;0.70;;;15.60;95.80;;;;;;4970545;28;20026;-58
2022/09/06 02:05:28;;;;;;;1.23;0.93;;;15.60;96.00;;;;;;4909895;29;20044;-57
2022/09/06 02:08:17;;;;;;;5.75;1.33;;;15.60;95.80;;;;;;4964367;28;20070;-54
2022/09/06 02:10:55;;;;;;;1.13;0.98;;;15.60;95.80;;;;;;4967706;28;20443;-57
2022/09/06 02:13:24;;;;;;;1.55;0.98;;;15.60;95.60;;;;;;4966059;28;20055;-58
2022/09/06 02:16:05;;;;;;;1.50;1.00;;;15.60;95.60;;;;;;4981233;28;20101;-58
2022/09/06 02:18:41;;;;;;;2.42;1.00;;;15.60;95.40;;;;;;4970644;28;20083;-57
2022/09/06 02:21:10;;;;;;;2.22;1.15;;;15.60;95.40;;;;;;4977190;28;20085;-56
2022/09/06 02:23:39;;;;;;;1.40;0.98;;;15.60;95.30;;;;;;4968331;28;20467;-59
2022/09/06 02:26:19;;;;;;;0.90;0.90;;;15.60;95.60;;;;;;4980403;28;20445;-58
2022/09/06 02:28:45;;;;;;;1.27;1.05;;;15.60;95.30;;;;;;4971690;28;20116;-54
2022/09/06 02:31:18;;;;;;;1.30;0.90;;;15.50;95.20;;;;;;4977800;28;20046;-56
2022/09/06 02:33:46;;;;;;;1.63;1.30;;;15.50;95.00;;;;;;4970198;28;20023;-59
2022/09/06 02:36:13;;;;;;;1.42;0.90;;;15.50;95.30;;;;;;4974769;28;20025;-55
2022/09/06 02:38:40;;;;;;;2.80;1.30;;;15.50;95.30;;;;;;4968561;28;20033;-56
2022/09/06 02:41:07;;;;;;;1.48;1.10;;;15.50;95.20;;;;;;4974002;28;20114;-55
2022/09/06 02:43:33;;;;;;;1.40;1.08;;;15.50;95.00;;;;;;4977997;28;20027;-55
2022/09/06 02:45:59;;;;;;;0.95;0.85;;;15.50;94.90;;;;;;4970092;28;20022;-56
2022/09/06 02:48:24;;;;;;;1.30;1.10;;;15.50;94.90;;;;;;4978181;28;20025;-55
2022/09/06 02:50:50;;;;;;;2.10;1.20;;;15.50;94.80;;;;;;4969407;28;20031;-57
2022/09/06 02:53:16;;;;;;;4.68;1.30;;;15.50;94.70;;;;;;4974499;28;20018;-54
2022/09/06 02:55:42;;;;;;;3.33;1.17;;;15.50;94.60;;;;;;4967780;28;20037;-55
2022/09/06 02:58:09;;;;;;;1.15;1.05;;;15.40;94.70;;;;;;4973753;28;20027;-57
2022/09/06 03:00:36;;;;;;;1.65;1.00;;;15.40;94.60;;;;;;4976579;28;20027;-53
2022/09/06 03:03:02;;;;;;;1.50;1.10;;;15.50;94.50;;;;;;4969183;28;20487;-57
2022/09/06 03:05:28;;;;;;;1.23;1.02;;;15.40;94.40;;;;;;4977583;28;20031;-55
2022/09/06 03:07:54;;;;;;;5.47;1.10;;;15.40;94.50;;;;;;4968641;28;20553;-54
2022/09/06 03:10:21;;;;;;;2.55;1.13;;;15.40;94.30;;;;;;4974810;28;20027;-55
2022/09/06 03:12:46;;;;;;;1.38;1.27;;;15.40;94.20;;;;;;4967104;28;20019;-54
2022/09/06 03:15:14;;;;;;;1.20;1.10;;;15.40;94.20;;;;;;4973610;28;20038;-54
2022/09/06 03:17:40;;;;;;;2.15;1.20;;;15.40;94.20;;;;;;4976626;28;20164;-57
2022/09/06 03:20:08;;;;;;;1.73;1.17;;;15.40;94.20;;;;;;4969506;28;20073;-59
2022/09/06 03:22:34;;;;;;;1.25;1.00;;;15.40;94.20;;;;;;4976291;28;20482;-58
2022/09/06 03:25:00;;;;;;;1.55;1.20;;;15.30;94.00;;;;;;4982038;28;20113;-57
2022/09/06 03:27:25;;;;;;;3.25;1.20;;;15.30;94.10;;;;;;4973522;28;20106;-58
2022/09/06 03:29:51;;;;;;;2.03;1.05;;;15.30;94.10;;;;;;4990793;28;20037;-54
2022/09/06 03:32:16;;;;;;;2.15;1.10;;;15.30;94.10;;;;;;4971320;28;20030;-55
2022/09/06 03:34:42;;;;;;;2.15;1.08;;;15.30;94.10;;;;;;4979537;28;20030;-56
2022/09/06 03:37:08;;;;;;;1.60;1.10;;;15.30;94.20;;;;;;4972834;28;20101;-58
2022/09/06 03:39:33;;;;;;;3.72;1.15;;;15.30;94.20;;;;;;4973953;28;20014;-55
2022/09/06 03:41:59;;;;;;;1.40;1.13;;;15.30;94.00;;;;;;4982654;28;20018;-58
2022/09/06 03:44:24;;;;;;;1.20;1.10;;;15.30;94.00;;;;;;4972751;28;20519;-55
2022/09/06 03:46:51;;;;;;;3.72;1.13;;;15.30;93.90;;;;;;4982240;28;20407;-57
2022/09/06 03:49:16;;;;;;;1.80;1.10;;;15.30;93.70;;;;;;4971427;28;20043;-58
2022/09/06 03:51:42;;;;;;;1.38;1.10;;;15.30;93.80;;;;;;4978631;28;20482;-57
2022/09/06 03:54:07;;;;;;;1.20;1.10;;;15.30;93.70;;;;;;4972198;28;20459;-57
2022/09/06 03:56:33;;;;;;;1.58;1.10;;;15.20;93.60;;;;;;4973023;28;20014;-55
2022/09/06 03:58:59;;;;;;;2.28;1.00;;;15.20;93.70;;;;;;4982515;28;20027;-58
2022/09/06 04:01:25;;;;;;;2.50;1.52;;;15.20;93.60;;;;;;4972185;28;20031;-58
2022/09/06 04:03:51;;;;;;;1.27;0.95;;;15.20;93.60;;;;;;4981733;28;20042;-58
2022/09/06 04:06:16;;;;;;;0.88;0.80;;;15.20;93.50;;;;;;4970627;28;20019;-56
2022/09/06 04:08:42;;;;;;;1.02;0.90;;;15.20;93.40;;;;;;4978243;28;20034;-58
2022/09/06 04:11:08;;;;;;;2.15;0.77;;;15.20;93.40;;;;;;4971747;28;20062;-57
2022/09/06 04:13:35;;;;;;;1.73;1.00;;;15.20;93.30;;;;;;4972469;28;20161;-57
2022/09/06 04:16:01;;;;;;;2.30;1.38;;;15.20;93.50;;;;;;4982033;28;20396;-56
2022/09/06 04:18:27;;;;;;;0.80;0.73;;;15.20;93.30;;;;;;4972469;28;20492;-56
2022/09/06 04:20:54;;;;;;;1.20;0.98;;;15.20;93.20;;;;;;4981213;28;20069;-57
2022/09/06 04:23:21;;;;;;;1.80;1.00;;;15.20;93.20;;;;;;4969337;28;20023;-57
2022/09/06 04:25:51;;;;;;;4.90;1.13;;;15.20;92.90;;;;;;4984988;28;20359;-56
2022/09/06 04:28:17;;;;;;;1.15;0.95;;;15.10;93.10;;;;;;4970284;28;20023;-56
2022/09/06 04:30:44;;;;;;;1.30;1.05;;;15.20;93.00;;;;;;4978664;28;20515;-58
2022/09/06 04:33:10;;;;;;;4.30;1.10;;;15.20;93.00;;;;;;4972071;28;20042;-53
2022/09/06 04:35:36;;;;;;;1.48;1.20;;;15.10;92.90;;;;;;4975821;28;20498;-58
2022/09/06 04:38:03;;;;;;;4.63;1.27;;;15.20;92.70;;;;;;4970134;28;20027;-54
2022/09/06 04:40:29;;;;;;;1.25;1.00;;;15.10;92.70;;;;;;4975008;28;20034;-55
2022/09/06 04:42:54;;;;;;;1.20;0.85;;;15.10;92.50;;;;;;4979597;28;20031;-54
2022/09/06 04:45:20;;;;;;;3.60;1.08;;;15.10;92.50;;;;;;4973289;28;20081;-56
2022/09/06 04:47:46;;;;;;;1.10;0.70;;;15.10;92.60;;;;;;4980947;28;20041;-56
2022/09/06 04:50:11;;;;;;;4.45;1.02;;;15.10;92.30;;;;;;4972068;28;20244;-56
2022/09/06 04:52:37;;;;;;;1.27;1.05;;;15.10;92.20;;;;;;4970299;28;20476;-57
2022/09/06 04:55:02;;;;;;;1.95;1.42;;;15.10;92.30;;;;;;4961916;28;20026;-57
2022/09/06 04:57:28;;;;;;;2.03;1.08;;;15.10;92.30;;;;;;4961658;28;20106;-57
2022/09/06 04:59:54;;;;;;;1.67;1.15;;;15.10;92.10;;;;;;4962218;28;20031;-59
2022/09/06 05:02:19;;;;;;;2.38;0.75;;;15.10;92.20;;;;;;4960003;28;20372;-54
2022/09/06 05:04:45;;;;;;;1.15;0.90;;;15.10;92.00;;;;;;4961512;28;20046;-57
2022/09/06 05:07:10;;;;;;;1.27;1.08;;;15.00;92.00;;;;;;4961961;28;20030;-58
2022/09/06 05:09:36;;;;;;;1.08;0.93;;;15.10;92.10;;;;;;4961641;28;20019;-56
2022/09/06 05:12:02;;;;;;;1.58;1.08;;;15.00;92.20;;;;;;4961014;28;20031;-57
2022/09/06 05:14:28;;;;;;;1.45;0.90;;;15.10;91.70;;;;;;4961356;28;20445;-54
2022/09/06 05:16:54;;;;;;;2.95;1.17;;;15.10;91.90;;;;;;4963369;28;20024;-57
2022/09/06 05:19:20;;;;;;;2.85;1.23;;;15.00;91.80;;;;;;4961927;28;20369;-56
2022/09/06 05:21:45;;;;;;;1.70;0.60;;;15.00;91.80;;;;;;4960787;28;20035;-57
2022/09/06 05:24:11;;;;;;;1.13;1.02;;;15.00;92.00;;;;;;4965889;28;20457;-57
2022/09/06 05:26:37;;;;;;;1.55;0.90;;;15.00;91.90;;;;;;4978158;28;20043;-57
2022/09/06 05:29:03;;;;;;;3.03;1.27;;;15.00;91.90;;;;;;4971604;28;20111;-52
2022/09/06 05:31:31;;;;;;;1.13;0.80;;;15.10;91.90;;;;;;4978911;28;20027;-57
2022/09/06 05:33:57;;;;;;;2.55;1.08;;;15.10;92.20;;;;;;4970448;28;20050;-53
2022/09/06 05:36:27;;;;;;;1.30;0.80;;;15.10;91.90;;;;;;4977076;28;20018;-55
2022/09/06 05:38:54;;;;;;;1.75;0.90;;;15.10;91.80;;;;;;4968785;28;20514;-55
2022/09/06 05:41:21;;;;;;;1.75;0.80;;;15.10;91.80;;;;;;4977380;28;20108;-54
2022/09/06 05:43:47;;;;;;;1.70;0.80;;;15.10;91.70;;;;;;4977631;28;20077;-55
2022/09/06 05:46:13;;;;;;;1.77;0.82;;;15.10;91.60;;;;;;4974022;28;20139;-55
2022/09/06 05:48:39;;;;;;;1.75;0.90;;;15.10;91.60;;;;;;4977616;28;20031;-56
2022/09/06 05:51:07;;;;;;;3.67;1.05;;;15.20;91.50;;;;;;4968445;28;20023;-57
2022/09/06 05:53:38;;;;;;;1.05;0.77;;;15.10;91.60;;;;;;4966747;28;20202;-55
2022/09/06 05:56:05;;;;;;;1.27;0.98;;;15.20;91.60;;;;;;4966791;28;20023;-56
2022/09/06 05:58:31;;;;;;;4.10;0.80;;;15.20;91.70;;;;;;4980164;28;20026;-58
2022/09/06 06:01:16;;;;;;;0.70;0.70;;;15.30;91.20;;;;;;4974844;28;20037;-57
2022/09/06 06:03:48;;;;;;;3.30;0.95;;;15.30;91.40;;;;;;4979983;28;20026;-55
2022/09/06 06:06:14;;;;;;;1.52;0.90;;;15.30;91.40;;;;;;4961554;28;20270;-55
2022/09/06 06:08:39;;;;;;;1.05;0.88;;;15.40;91.10;;;;;;4975619;28;20077;-54
2022/09/06 06:11:05;;;;;;;1.77;0.90;;;15.40;91.00;;;;;;4970586;28;20026;-55
2022/09/06 06:13:33;;;;;;;2.50;1.02;;;15.50;91.00;;;;;;4969375;28;20050;-58
2022/09/06 06:16:00;;;;;;;1.88;0.60;;;15.50;90.60;;;;;;4979837;28;20021;-56
2022/09/06 06:18:25;;;;;;;1.50;0.80;;;15.60;90.70;;;;;;4970027;28;20506;-55
2022/09/06 06:20:51;;;;;;;1.10;0.85;;;15.60;90.90;;;;;;4979349;28;20031;-57
2022/09/06 06:23:17;;;;;;;4.35;1.30;;;15.70;90.30;;;;;;4983855;23;20527;-43
2022/09/06 06:25:42;;;;;;;0.98;0.60;;;15.70;90.60;;;;;;4962933;28;20018;-44
2022/09/06 06:28:08;;;;;;;1.85;0.80;;;15.80;90.50;;;;;;4967726;28;20078;-42
2022/09/06 06:30:33;;;;;;;2.17;0.90;;;15.80;90.40;;;;;;4962573;28;20019;-46
2022/09/06 06:33:00;;;;;;;0.73;0.70;;;15.90;90.50;;;;;;4967388;28;20387;-44
2022/09/06 06:35:26;;;;;;;4.60;0.98;;;15.90;90.80;;;;;;4957865;28;20023;-44
2022/09/06 06:37:52;;;;;;;1.77;1.00;;;15.90;90.50;;;;;;4961630;28;20034;-42
2022/09/06 06:40:18;;;;;;;1.67;0.88;;;16.00;90.90;;;;;;4962115;28;20476;-42
2022/09/06 06:42:43;;;;;;;3.58;0.90;;;16.00;90.60;;;;;;4964722;28;20506;-44
2022/09/06 06:45:09;;;;;;;1.73;1.05;;;16.10;90.40;;;;;;4960338;28;20492;-43
2022/09/06 06:47:35;;;;;;;1.95;0.90;;;16.10;90.30;;;;;;4964863;28;20042;-45
2022/09/06 06:50:00;;;;;;;1.23;0.75;;;16.20;90.10;;;;;;4961524;28;20023;-47
2022/09/06 06:52:26;;;;;;;1.17;1.08;;;16.20;90.10;;;;;;4962460;28;20113;-46
2022/09/06 06:54:51;;;;;;;2.38;0.85;;;16.30;90.20;;;;;;4962947;28;20077;-43
2022/09/06 06:57:17;;;;;;;2.50;0.90;;;16.30;90.20;;;;;;4959471;28;20111;-45
2022/09/06 06:59:42;;;;;;;1.75;0.70;;;16.30;90.40;;;;;;4964370;28;20030;-43
2022/09/06 07:02:08;;;;;;;3.78;1.13;;;16.40;90.40;;;;;;4959858;28;20046;-45
2022/09/06 07:04:34;;;;;;;1.58;0.88;;;16.40;90.00;;;;;;4964728;28;20022;-46
2022/09/06 07:06:59;;;;;;;1.00;0.90;;;16.50;90.30;;;;;;4961349;28;20495;-42
2022/09/06 07:09:25;;;;;;;1.23;1.10;;;16.70;90.20;;;;;;4959480;28;20027;-45
2022/09/06 07:11:51;;;;;;;1.25;0.93;;;16.80;89.90;;;;;;4965342;28;20027;-43
2022/09/06 07:14:17;;;;;;;1.15;0.70;;;16.90;90.00;;;;;;4959338;28;20090;-43
2022/09/06 07:16:43;;;;;;;5.68;1.10;;;16.90;90.00;;;;;;4965276;28;20023;-43
2022/09/06 07:19:09;;;;;;;1.33;0.90;;;17.00;89.60;;;;;;4959662;28;20043;-45
2022/09/06 07:21:35;;;;;;;3.88;1.35;;;17.00;89.40;;;;;;4964352;28;20033;-43
2022/09/06 07:24:01;;;;;;;1.45;1.30;;;17.00;89.40;;;;;;4959465;28;20486;-43
2022/09/06 07:26:29;;;;;;;2.88;0.70;;;17.10;89.20;;;;;;4959145;28;20039;-43
2022/09/06 07:28:56;;;;;;;1.27;0.93;;;17.20;89.50;;;;;;4964858;28;20031;-43
2022/09/06 07:31:22;;;;;;;1.33;1.10;;;17.30;89.50;;;;;;4957582;28;20027;-42
2022/09/06 07:33:48;;;;;;;2.95;1.20;;;17.30;89.10;;;;;;4965858;28;20102;-46
2022/09/06 07:36:14;;;;;;;8.65;1.20;;;17.30;88.70;;;;;;4955064;28;20022;-42
2022/09/06 07:38:40;;;;;;;0.80;0.80;;;17.30;89.70;;;;;;4959340;28;20023;-43
2022/09/06 07:41:08;;;;;;;1.50;0.95;;;17.40;89.60;;;;;;4965138;28;20406;-44
2022/09/06 07:43:34;;;;;;;2.67;1.00;;;17.40;89.70;;;;;;4958590;28;20094;-44
2022/09/06 07:46:19;;;;;;;2.05;1.00;;;17.40;89.80;;;;;;4966124;28;20114;-45
2022/09/06 07:48:45;;;;;;;1.25;1.02;;;17.50;89.70;;;;;;4959020;28;20030;-43
2022/09/06 07:51:15;;;;;;;1.45;0.90;;;17.40;89.50;;;;;;4966434;28;20058;-43
2022/09/06 07:53:42;;;;;;;2.17;0.90;;;17.40;89.30;;;;;;4958543;28;20403;-43
2022/09/06 07:56:10;;;;;;;3.85;1.00;;;17.40;89.90;;;;;;4961454;28;20030;-43
2022/09/06 07:58:38;;;;;;;2.40;1.13;;;17.40;89.70;;;;;;4962150;28;20107;-42
2022/09/06 08:01:34;;;;;;;2.35;0.95;;;17.40;89.90;;;;;;4960815;28;20259;-43
2022/09/06 08:04:02;;;;;;;1.30;1.05;;;17.40;90.00;;;;;;4944728;28;20070;-43
2022/09/06 08:06:30;;;;;;;5.07;1.23;;;17.40;90.20;;;;;;4961471;28;20022;-45
2022/09/06 08:08:56;;;;;;;1.23;1.13;;;17.50;90.30;;;;;;4961672;28;20023;-44
2022/09/06 08:11:26;;;;;;;1.60;1.00;;;17.50;90.30;;;;;;4964603;28;20615;-44
2022/09/06 08:13:56;;;;;;;3.05;1.10;;;17.60;90.20;;;;;;4963557;28;20026;-44
2022/09/06 08:16:23;;;;;;;3.10;1.20;;;17.50;90.10;;;;;;4966172;28;20065;-44
2022/09/06 08:18:54;;;;;;;1.52;1.00;;;17.50;90.20;;;;;;4964988;28;20019;-44
2022/09/06 08:21:22;;;;;;;2.10;1.00;;;17.50;90.20;;;;;;4965037;28;20015;-49
2022/09/06 08:23:53;;;;;;;1.00;0.90;;;17.50;90.30;;;;;;4965486;28;20033;-43
2022/09/06 08:26:21;;;;;;;1.38;1.23;;;17.40;90.30;;;;;;4956806;28;20022;-45
2022/09/06 08:28:47;;;;;;;3.28;1.50;;;17.40;90.60;;;;;;4965548;28;20167;-45
2022/09/06 08:31:15;;;;;;;1.77;1.48;;;17.50;90.30;;;;;;4963421;28;20111;-44
2022/09/06 08:33:41;;;;;;;4.88;1.75;;;17.50;90.60;;;;;;4966055;28;20027;-43
2022/09/06 08:36:08;;;;;;;2.47;1.17;;;17.60;90.50;;;;;;4964655;28;20027;-44
2022/09/06 08:38:34;;;;;;;1.85;0.90;;;17.60;90.70;;;;;;4960114;28;20522;-44
2022/09/06 08:41:25;;;;;;;2.42;0.98;;;17.70;90.60;;;;;;4968052;28;20038;-44
2022/09/06 08:44:07;;;;;;;4.88;1.42;;;17.70;90.50;;;;;;4958945;28;20033;-44
2022/09/06 08:46:40;;;;;;;3.47;1.30;;;17.80;90.60;;;;;;4966168;28;20027;-43
2022/09/06 08:49:07;;;;;;;1.98;1.38;;;17.80;90.50;;;;;;4964312;28;20038;-45
2022/09/06 08:51:48;;;;;;;1.70;1.13;;;17.80;90.80;;;;;;4966077;28;20086;-44
2022/09/06 08:54:35;;;;;;;1.80;1.35;;;17.90;90.50;;;;;;4964929;28;20030;-47
2022/09/06 08:57:09;;;;;;;4.15;1.48;;;17.90;90.50;;;;;;4963357;28;20451;-44
2022/09/06 08:59:38;;;;;;;1.63;1.17;;;17.90;90.60;;;;;;4965435;28;20023;-43
2022/09/06 09:02:04;;;;;;;4.45;1.20;;;17.90;90.60;;;;;;4963805;28;20487;-45
2022/09/06 09:04:30;;;;;;;1.70;1.38;;;18.00;90.40;;;;;;4964925;28;20031;-45
2022/09/06 09:07:13;;;;;;;3.67;1.38;;;18.00;90.60;;;;;;4964382;28;20034;-43
2022/09/06 09:09:39;;;;;;;3.40;1.67;;;18.00;90.70;;;;;;4964866;28;20030;-44
2022/09/06 09:12:06;;;;;;;1.50;1.30;;;18.00;90.70;;;;;;4962304;28;20122;-43
2022/09/06 09:14:36;;;;;;;2.80;1.88;;;18.00;90.80;;;;;;4965455;28;20055;-45
2022/09/06 09:17:19;;;;;;;2.05;1.10;;;18.10;90.60;;;;;;4962924;28;20023;-43
2022/09/06 09:19:44;;;;;;;2.80;1.40;;;18.10;90.90;;;;;;4967936;28;20459;-46
2022/09/06 09:22:13;;;;;;;2.22;1.40;;;18.10;90.90;;;;;;4961037;28;20042;-49
2022/09/06 09:24:39;;;;;;;3.45;1.40;;;18.10;91.00;;;;;;4967920;28;20023;-49
2022/09/06 09:27:09;;;;;;;1.42;1.20;;;18.20;90.80;;;;;;4962723;28;20033;-45
2022/09/06 09:29:53;;;;;;;3.95;1.70;;;18.20;91.00;;;;;;4961336;28;20107;-45
2022/09/06 09:32:39;;;;;;;1.77;1.48;;;18.20;90.80;;;;;;4955469;28;20115;-44
2022/09/06 09:35:14;;;;;;;3.88;1.40;;;18.20;91.10;;;;;;4963732;28;20030;-43
2022/09/06 09:37:40;;;;;;;2.40;1.75;;;18.20;90.90;;;;;;4964890;28;20078;-43
2022/09/06 09:40:11;;;;;;;3.85;1.63;;;18.20;91.00;;;;;;4962030;28;20496;-45
2022/09/06 09:42:37;;;;;;;1.45;1.35;;;18.30;91.00;;;;;;4963904;28;20320;-46
2022/09/06 09:45:27;;;;;;;1.85;1.35;;;18.30;91.00;;;;;;4963219;28;20026;-45
2022/09/06 09:47:53;;;;;;;2.75;1.30;;;18.40;91.10;;;;;;4954271;28;20476;-46
2022/09/06 09:50:24;;;;;;;2.63;1.38;;;18.40;91.00;;;;;;4956897;28;20037;-45
2022/09/06 09:52:49;;;;;;;4.35;1.35;;;18.40;91.00;;;;;;4963387;28;20027;-43
2022/09/06 09:55:20;;;;;;;6.93;1.83;;;18.40;90.90;;;;;;4960790;28;20019;-45
2022/09/06 09:57:49;;;;;;;3.17;1.40;;;18.40;90.80;;;;;;4966576;28;20045;-45
2022/09/06 10:00:41;;;;;;;2.13;1.45;;;18.50;91.00;;;;;;4957130;28;20413;-44
2022/09/06 10:03:24;;;;;;;3.80;1.50;;;18.50;91.20;;;;;;4965910;28;20109;-43
2022/09/06 10:05:59;;;;;;;3.42;1.48;;;18.60;90.90;;;;;;4957728;28;20026;-45
2022/09/06 10:08:26;;;;;;;3.93;1.40;;;18.60;91.00;;;;;;4966942;28;20115;-43
2022/09/06 10:10:52;;;;;;;1.92;1.50;;;18.60;90.90;;;;;;4960947;28;20270;-45
2022/09/06 10:13:29;;;;;;;2.10;1.13;;;18.70;91.10;;;;;;4963092;28;20571;-44
2022/09/06 10:15:57;;;;;;;1.90;1.38;;;18.80;91.00;;;;;;4961914;28;20030;-45
2022/09/06 10:18:41;;;;;;;3.47;1.50;;;18.80;90.90;;;;;;4963950;28;20181;-43
2022/09/06 10:21:16;;;;;;;1.95;1.65;;;18.90;90.70;;;;;;4961990;28;20605;-45
2022/09/06 10:24:01;;;;;;;3.05;1.95;;;18.90;90.70;;;;;;4963356;28;20035;-47
2022/09/06 10:26:48;;;;;;;2.47;1.70;;;18.90;90.90;;;;;;4963612;28;20110;-45
2022/09/06 10:29:26;;;;;;;2.10;1.60;;;19.00;90.70;;;;;;4957076;28;21662;-46
2022/09/06 10:32:10;;;;;;;2.72;1.45;;;19.00;91.00;;;;;;4966059;28;20057;-46
2022/09/06 10:34:55;;;;;;;2.17;1.65;;;19.10;91.20;;;;;;4959418;28;20099;-48
2022/09/06 10:37:40;;;;;;;4.57;1.35;;;19.10;90.60;;;;;;4953926;28;20027;-45
2022/09/06 10:40:09;;;;;;;3.08;1.63;;;19.30;90.30;;;;;;4960151;28;20026;-43
2022/09/06 10:42:44;;;;;;;3.88;1.55;;;19.30;90.50;;;;;;4962870;28;20027;-44
2022/09/06 10:45:41;;;;;;;3.00;1.80;;;19.20;90.70;;;;;;4962593;28;20026;-45
2022/09/06 10:48:16;;;;;;;2.05;1.42;;;19.30;90.40;;;;;;4961763;28;20103;-43
2022/09/06 10:51:19;;;;;;;5.03;1.42;;;19.30;90.30;;;;;;4966529;28;20540;-44
2022/09/06 10:53:54;;;;;;;4.70;1.73;;;19.30;90.40;;;;;;4958474;28;20440;-45
2022/09/06 10:56:45;;;;;;;2.20;1.73;;;19.40;90.10;;;;;;4949233;28;20216;-43
2022/09/06 10:59:38;;;;;;;3.70;2.00;;;19.30;89.90;;;;;;4962251;28;20026;-43
2022/09/06 11:02:35;;;;;;;2.80;1.77;;;19.40;89.30;;;;;;4961667;28;20455;-45
2022/09/06 11:05:07;;;;;;;2.03;1.60;;;19.40;89.30;;;;;;4961493;28;20066;-44
2022/09/06 11:07:40;;;;;;;3.00;1.60;;;19.40;89.90;;;;;;4959586;28;20031;-45
2022/09/06 11:10:17;;;;;;;1.50;1.38;;;19.40;89.50;;;;;;4960557;28;20019;-43
2022/09/06 11:12:52;;;;;;;3.47;1.77;;;19.50;89.70;;;;;;4954940;28;20034;-47
2022/09/06 11:15:19;;;;;;;2.73;1.60;;;19.50;89.30;;;;;;4953259;28;20459;-47
2022/09/06 11:17:54;;;;;;;1.75;1.50;;;19.50;88.60;;;;;;4959785;28;20034;-44
2022/09/06 11:20:44;;;;;;;1.85;1.20;;;19.50;89.00;;;;;;4954201;28;20417;-43
2022/09/06 11:23:21;;;;;;;3.50;1.80;;;19.50;88.80;;;;;;4961062;28;20062;-47
2022/09/06 11:26:18;;;;;;;1.40;1.30;;;19.50;88.50;;;;;;4962437;28;20027;-48
2022/09/06 11:28:47;;;;;;;4.40;1.85;;;19.50;88.10;;;;;;4957875;28;20073;-49
2022/09/06 11:31:24;;;;;;;1.75;1.38;;;19.50;88.50;;;;;;4960459;28;20498;-44
2022/09/06 11:34:17;;;;;;;1.27;1.17;;;19.50;88.50;;;;;;4962207;28;20058;-45
2022/09/06 11:36:48;;;;;;;1.85;1.67;;;19.40;89.00;;;;;;4961391;28;20019;-46
2022/09/06 11:39:27;;;;;;;2.33;1.50;;;19.50;89.00;;;;;;4950248;28;20510;-45
2022/09/06 11:41:52;;;;;;;3.00;1.50;;;19.50;88.80;;;;;;4960006;28;20492;-44
2022/09/06 11:44:51;;;;;;;1.85;1.30;;;19.50;88.70;;;;;;4962102;28;20029;-47
2022/09/06 11:48:16;;;;;;;1.33;1.20;;;19.50;88.60;;;;;;4955766;28;20459;-46
2022/09/06 11:50:53;;;;;;;2.17;1.85;;;19.50;88.80;;;;;;4890979;29;20089;-47
2022/09/06 11:53:21;;;;;;;2.75;1.70;;;19.50;88.40;;;;;;4895043;29;20160;-44
2022/09/06 11:56:00;;;;;;;1.65;1.42;;;19.50;88.90;;;;;;4931503;28;20034;-45
2022/09/06 11:58:43;;;;;;;1.50;1.40;;;19.50;89.20;;;;;;4958414;28;20098;-44
2022/09/06 12:01:11;;;;;;;2.83;1.67;;;19.60;89.20;;;;;;4965450;28;20038;-49
2022/09/06 12:03:53;;;;;;;1.77;1.52;;;19.60;89.60;;;;;;4966805;28;20023;-43
2022/09/06 12:06:21;;;;;;;1.88;1.30;;;19.70;89.20;;;;;;4954157;28;20042;-43
2022/09/06 12:08:52;;;;;;;2.35;1.80;;;19.70;88.90;;;;;;4966171;28;20606;-44
2022/09/06 12:11:36;;;;;;;2.47;1.55;;;19.70;88.70;;;;;;4954347;28;20110;-45
2022/09/06 12:14:28;;;;;;;3.38;1.58;;;19.70;88.80;;;;;;4964249;28;20189;-43
2022/09/06 12:16:56;;;;;;;2.92;1.90;;;19.70;89.00;;;;;;4965688;28;20330;-43
2022/09/06 12:19:51;;;;;;;2.40;1.70;;;19.80;89.10;;;;;;4966096;28;20019;-44
2022/09/06 12:24:45;;;;;;;1.95;1.65;;;19.80;89.00;;;;;;4991283;28;20046;-57
2022/09/06 12:27:14;;;;;;;1.88;1.50;;;19.80;88.80;;;;;;4992886;28;20023;-54
2022/09/06 12:30:07;;;;;;;3.55;1.58;;;19.80;88.80;;;;;;4988655;28;20281;-57
2022/09/06 12:32:45;;;;;;;2.03;1.48;;;19.80;88.20;;;;;;4988226;28;20023;-51
2022/09/06 12:35:18;;;;;;;4.20;2.05;;;19.80;88.00;;;;;;4991114;28;20545;-53
2022/09/06 12:37:58;;;;;;;2.40;1.40;;;19.80;88.10;;;;;;4987753;28;20023;-56
2022/09/06 12:40:25;;;;;;;6.82;1.85;;;19.90;88.20;;;;;;4985836;28;20014;-57
2022/09/06 12:42:52;;;;;;;5.38;1.67;;;19.90;87.70;;;;;;4988001;28;20022;-57
2022/09/06 12:45:20;;;;;;;3.58;1.48;;;19.90;87.00;;;;;;4991412;28;20025;-57
2022/09/06 12:47:46;;;;;;;2.35;1.40;;;19.90;88.00;;;;;;4987570;28;20049;-57
2022/09/06 12:50:16;;;;;;;2.42;1.20;;;19.90;88.30;;;;;;4989787;28;20054;-56
2022/09/06 12:52:43;;;;;;;2.70;1.80;;;20.00;88.10;;;;;;4986324;28;20014;-53
2022/09/06 12:55:20;;;;;;;3.58;1.45;;;20.00;88.20;;;;;;4988559;28;20041;-57
2022/09/06 12:57:48;;;;;;;1.30;1.20;;;20.00;88.40;;;;;;4991505;28;20117;-53
2022/09/06 13:00:14;;;;;;;1.85;1.45;;;20.00;88.20;;;;;;4987056;28;20021;-55
2022/09/06 13:02:51;;;;;;;1.50;1.40;;;20.00;88.80;;;;;;4992023;28;20026;-57
2022/09/06 13:05:17;;;;;;;2.65;1.80;;;20.00;89.20;;;;;;4985834;28;20015;-55
2022/09/06 13:07:57;;;;;;;2.63;1.42;;;20.00;88.30;;;;;;4992259;28;20053;-55
2022/09/06 13:10:24;;;;;;;4.07;1.65;;;19.90;88.20;;;;;;4985125;28;20110;-53